Αρχική σελίδα
METAR-TAF:

METAR-TAF

Αεροδρόμια :

Aklavik, Βορειοδυτικά Εδάφη, Καναδάς

γεωγραφικό πλάτος: 68-13N, γεωγραφικό μήκος: 135-00W, υψόμετρο: 7 μ

Παρών καιρός

Η αναφορά έγινε 4 ώρες και 2 λεπτά πριν, στις 23:00 UTC
Άνεμος 5 kt από Δ/BΔ
Θερμοκρασία 4°C
Υγρασία 93%
Πίεση 1020 hPa
Ορατότητα: 16.1 χλμ
Αρκετά νέφη σε ύψος 900 πόδια
Νεφοσκεπής σε ύψος 5800 πόδια
ομίχλη στην περιοχή

METAR: CYKD 192300Z 30005KT 10SM VCFG BKN009 OVC058 04/03 A3013 RMK ST6SC2 CIG RAG/VIS E 2/2.2/LAST STFD OBS/NXT 201300Z SLP205

Χρόνος: 21:02 (03:02 UTC)


TAF: λείπει

Μετεωρολογικές αναφορές και προγνώσεις για περισσότερα από 4000 αεροδρόμια (δελτία METAR και TAF).

Οι διαθέσιμοι σταθμοί απεικονίζονται στο χάρτη με κίτρινες και κόκκινες κουκκίδες.

Μετακινήστε το ποντίκι πάνω από τις κουκκίδες για να δείτε το όνομα του σταθμού.

Στη συνέχεια, κάντε κλικ για να δείτε τις μετεωρολογικές αναφορές και τις προγνώσεις καιρού.

Για να αλλάξετε το χάρτη: κάντε κλικ στα πράσινα κουμπιά με τον μαύρο σταυρό για να ζουμάρετε, στο πράσινο κουμπί με την παύλα για να αφαιρέσετε το ζουμ ή στα πράσινα βέλη για να αντιπαραβάλλετε χάρτες.


METAR-TAF: